createdAt,value
2019-03-13T00:02:29.325Z,3.30
2019-03-13T00:04:57.377Z,3.20
2019-03-13T00:07:25.524Z,3.50
2019-03-13T00:09:53.803Z,3.20
2019-03-13T00:12:21.980Z,2.50
2019-03-13T00:14:51.304Z,1.80
2019-03-13T00:17:19.392Z,1.63
2019-03-13T00:19:47.603Z,1.50
2019-03-13T00:22:15.653Z,1.73
2019-03-13T00:24:43.851Z,1.40
2019-03-13T00:27:12.333Z,1.47
2019-03-13T00:29:40.519Z,1.40
2019-03-13T00:32:11.255Z,1.50
2019-03-13T00:34:39.427Z,1.67
2019-03-13T00:37:07.640Z,1.40
2019-03-13T00:39:35.740Z,1.53
2019-03-13T00:42:05.934Z,1.50
2019-03-13T00:44:34.147Z,1.50
2019-03-13T00:47:02.286Z,1.50
2019-03-13T00:49:30.359Z,1.40
2019-03-13T00:51:58.725Z,1.80
2019-03-13T00:54:26.807Z,1.83
2019-03-13T00:56:54.917Z,1.70
2019-03-13T00:59:23.182Z,1.47
2019-03-13T01:02:22.565Z,1.47
2019-03-13T01:05:16.089Z,1.90
2019-03-13T01:07:44.262Z,1.80
2019-03-13T01:10:12.914Z,2.27
2019-03-13T01:12:41.075Z,2.10
2019-03-13T01:15:09.596Z,3.07
2019-03-13T01:17:39.052Z,2.57
2019-03-13T01:20:08.451Z,3.00
2019-03-13T01:22:36.748Z,3.07
2019-03-13T01:25:05.446Z,3.03
2019-03-13T01:27:33.645Z,3.60
2019-03-13T01:30:01.770Z,3.10
2019-03-13T01:32:49.649Z,3.00
2019-03-13T01:35:49.504Z,3.37
2019-03-13T01:38:17.689Z,3.33
2019-03-13T01:40:45.819Z,3.13
2019-03-13T01:43:14.081Z,3.53
2019-03-13T01:45:42.276Z,3.93
2019-03-13T01:48:10.403Z,3.30
2019-03-13T01:50:39.451Z,3.30
2019-03-13T01:53:07.541Z,3.10
2019-03-13T01:55:35.966Z,3.20
2019-03-13T01:58:04.224Z,3.17
2019-03-13T02:00:32.967Z,3.43
2019-03-13T02:03:01.185Z,3.13
2019-03-13T02:05:29.271Z,3.43
2019-03-13T02:07:57.455Z,3.47
2019-03-13T02:10:25.550Z,2.90
2019-03-13T02:12:53.669Z,2.97
2019-03-13T02:15:21.774Z,3.00
2019-03-13T02:17:49.839Z,3.70
2019-03-13T02:20:18.093Z,2.97
2019-03-13T02:22:46.289Z,3.20
2019-03-13T02:25:15.945Z,3.20
2019-03-13T02:27:44.004Z,3.17
2019-03-13T02:30:13.770Z,3.10
2019-03-13T02:32:41.981Z,3.27
2019-03-13T02:35:10.210Z,2.93
2019-03-13T02:37:38.447Z,3.63
2019-03-13T02:40:08.331Z,3.57
2019-03-13T02:42:36.657Z,4.17
2019-03-13T02:45:05.899Z,3.40
2019-03-13T02:47:35.361Z,3.67
2019-03-13T02:50:20.065Z,3.20
2019-03-13T02:52:48.305Z,2.93
2019-03-13T02:55:16.440Z,3.30
2019-03-13T02:57:44.563Z,2.87
2019-03-13T03:00:15.325Z,3.10
2019-03-13T03:02:55.351Z,3.03
2019-03-13T03:05:23.468Z,3.10
2019-03-13T03:07:51.818Z,3.47
2019-03-13T03:10:19.857Z,3.47
2019-03-13T03:12:47.883Z,3.10
2019-03-13T03:15:17.346Z,3.73
2019-03-13T03:17:45.732Z,3.63
2019-03-13T03:20:16.529Z,3.50
2019-03-13T03:22:44.594Z,4.30
2019-03-13T03:25:13.740Z,3.90
2019-03-13T03:27:41.857Z,3.60
2019-03-13T03:30:15.253Z,3.83
2019-03-13T03:32:43.422Z,3.53
2019-03-13T03:35:11.490Z,3.83
2019-03-13T03:37:39.653Z,4.03
2019-03-13T03:40:09.899Z,4.03
2019-03-13T03:42:37.967Z,4.07
2019-03-13T03:45:07.005Z,4.90
2019-03-13T03:47:35.061Z,4.40
2019-03-13T03:50:04.075Z,4.30
2019-03-13T03:52:32.194Z,3.80
2019-03-13T03:55:00.615Z,4.73
2019-03-13T03:57:28.736Z,4.70
2019-03-13T03:59:56.921Z,4.40
2019-03-13T04:02:25.043Z,4.33
2019-03-13T04:04:53.388Z,4.10
2019-03-13T04:07:21.792Z,4.40
2019-03-13T04:09:50.111Z,4.60
2019-03-13T04:12:18.166Z,5.00
2019-03-13T04:14:46.305Z,5.03
2019-03-13T04:17:14.353Z,4.50
2019-03-13T04:19:42.444Z,5.50
2019-03-13T04:22:10.722Z,4.70
2019-03-13T04:24:38.799Z,5.27
2019-03-13T04:27:06.840Z,5.53
2019-03-13T04:29:34.956Z,4.47
2019-03-13T04:32:03.132Z,5.27
2019-03-13T04:34:31.223Z,5.43
2019-03-13T04:36:59.348Z,5.10
2019-03-13T04:39:27.650Z,5.17
2019-03-13T04:41:55.843Z,5.20
2019-03-13T04:44:23.926Z,5.67
2019-03-13T04:46:52.018Z,5.20
2019-03-13T04:49:20.163Z,5.57
2019-03-13T04:51:48.211Z,5.80
2019-03-13T04:54:16.292Z,5.13
2019-03-13T04:56:44.303Z,5.83
2019-03-13T04:59:13.365Z,6.10
2019-03-13T05:01:41.429Z,6.00
2019-03-13T05:04:09.561Z,6.47
2019-03-13T05:06:37.723Z,6.30
2019-03-13T05:09:23.663Z,6.13
2019-03-13T05:11:51.737Z,6.23
2019-03-13T05:14:19.800Z,6.27
2019-03-13T05:16:48.081Z,6.23
2019-03-13T05:19:16.350Z,6.10
2019-03-13T05:21:44.494Z,5.80
2019-03-13T05:24:12.631Z,6.00
2019-03-13T05:26:40.749Z,6.43
2019-03-13T05:29:08.816Z,5.70
2019-03-13T05:31:36.921Z,6.30
2019-03-13T05:34:05.107Z,5.87
2019-03-13T05:36:33.243Z,6.40
2019-03-13T05:39:04.776Z,6.07
2019-03-13T05:41:33.195Z,6.30
2019-03-13T05:44:01.307Z,6.33
2019-03-13T05:46:29.395Z,7.00
2019-03-13T05:48:57.510Z,7.40
2019-03-13T05:51:25.576Z,7.23
2019-03-13T05:53:53.680Z,6.67
2019-03-13T05:56:21.801Z,7.40
2019-03-13T05:58:49.981Z,7.30
2019-03-13T06:01:18.217Z,6.97
2019-03-13T06:03:46.355Z,7.17
2019-03-13T06:06:14.422Z,7.67
2019-03-13T06:08:42.516Z,7.80
2019-03-13T06:11:10.544Z,7.50
2019-03-13T06:13:38.828Z,7.80
2019-03-13T06:16:07.035Z,8.67
2019-03-13T06:18:35.168Z,8.07
2019-03-13T06:21:03.353Z,7.43
2019-03-13T06:23:32.401Z,7.80
2019-03-13T06:26:00.460Z,8.37
2019-03-13T06:28:28.520Z,8.20
2019-03-13T06:30:56.646Z,8.13
2019-03-13T06:33:24.702Z,7.77
2019-03-13T06:35:52.764Z,7.53
2019-03-13T06:38:20.904Z,7.53
2019-03-13T06:40:48.946Z,7.33
2019-03-13T06:43:17.019Z,6.97
2019-03-13T06:45:45.217Z,7.20
2019-03-13T06:48:13.696Z,7.97
2019-03-13T06:50:41.841Z,7.27
2019-03-13T06:53:09.930Z,8.03
2019-03-13T06:55:37.962Z,7.63
2019-03-13T06:58:06.257Z,6.73
2019-03-13T07:00:57.087Z,6.47
2019-03-13T07:03:56.933Z,6.97
2019-03-13T07:06:43.031Z,7.07
2019-03-13T07:09:33.634Z,6.20
2019-03-13T07:12:39.163Z,6.53
2019-03-13T07:15:36.454Z,6.47
2019-03-13T07:18:13.409Z,5.87
2019-03-13T07:21:19.022Z,6.47
2019-03-13T07:24:02.717Z,6.23
2019-03-13T07:26:53.284Z,6.00
2019-03-13T07:29:39.619Z,6.27
2019-03-13T07:32:13.366Z,5.80
2019-03-13T07:34:51.841Z,5.97
2019-03-13T07:37:29.398Z,5.77
2019-03-13T07:40:22.853Z,5.67
2019-03-13T07:43:22.495Z,5.73
2019-03-13T07:46:16.047Z,5.80
2019-03-13T07:49:04.811Z,5.37
2019-03-13T07:51:55.514Z,5.00
2019-03-13T07:54:45.927Z,5.53
2019-03-13T07:57:40.679Z,5.77
2019-03-13T08:00:38.129Z,4.90
2019-03-13T08:03:15.278Z,5.17
2019-03-13T08:06:05.701Z,5.00
2019-03-13T08:08:44.279Z,4.80
2019-03-13T08:11:37.984Z,5.40
2019-03-13T08:14:28.636Z,5.53
2019-03-13T08:17:18.841Z,5.33
2019-03-13T08:20:21.614Z,5.90
2019-03-13T08:23:08.765Z,4.10
2019-03-13T08:26:02.053Z,4.73
2019-03-13T08:28:49.753Z,5.20
2019-03-13T08:31:28.626Z,5.57
2019-03-13T08:34:25.385Z,4.90
2019-03-13T08:37:18.215Z,5.37
2019-03-13T08:40:52.457Z,4.40
2019-03-13T08:43:38.387Z,4.77
2019-03-13T08:46:26.161Z,5.27
2019-03-13T08:49:26.008Z,4.77
2019-03-13T08:52:03.324Z,5.20
2019-03-13T08:54:59.842Z,5.97
2019-03-13T08:57:47.631Z,5.13
2019-03-13T09:00:35.261Z,4.97
2019-03-13T09:03:17.717Z,4.90
2019-03-13T09:06:08.242Z,5.27
2019-03-13T09:09:01.772Z,4.77
2019-03-13T09:11:49.840Z,5.03
2019-03-13T09:14:37.499Z,4.93
2019-03-13T09:17:31.013Z,4.80
2019-03-13T09:20:18.813Z,4.70
2019-03-13T09:23:05.296Z,4.60
2019-03-13T09:25:51.295Z,5.20
2019-03-13T09:28:38.979Z,4.50
2019-03-13T09:31:18.313Z,4.53
2019-03-13T09:33:51.474Z,4.73
2019-03-13T09:36:32.304Z,4.87
2019-03-13T09:39:28.719Z,5.17
2019-03-13T09:42:31.351Z,4.07
2019-03-13T09:45:20.096Z,4.37
2019-03-13T09:48:06.137Z,4.37
2019-03-13T09:50:45.106Z,3.97
2019-03-13T09:53:31.402Z,4.90
2019-03-13T09:56:17.541Z,4.07
2019-03-13T09:59:23.116Z,4.50
2019-03-13T10:02:00.580Z,4.37
2019-03-13T10:04:34.934Z,4.37
2019-03-13T10:07:20.956Z,4.10
2019-03-13T10:10:04.768Z,4.40
2019-03-13T10:12:42.231Z,3.97
2019-03-13T10:15:20.193Z,4.40
2019-03-13T10:18:10.490Z,4.60
2019-03-13T10:20:59.135Z,4.70
2019-03-13T10:23:46.741Z,4.30
2019-03-13T10:26:39.241Z,4.30
2019-03-13T10:29:29.864Z,4.73
2019-03-13T10:32:04.379Z,4.43
2019-03-13T10:34:50.911Z,3.60
2019-03-13T10:37:44.504Z,4.50
2019-03-13T10:40:37.538Z,4.13
2019-03-13T10:43:34.238Z,4.53
2019-03-13T10:46:20.169Z,4.33
2019-03-13T10:49:04.177Z,5.13
2019-03-13T10:51:47.014Z,4.53
2019-03-13T10:54:37.792Z,4.43
2019-03-13T10:57:25.722Z,4.60
2019-03-13T11:00:16.463Z,4.77
2019-03-13T11:03:06.863Z,5.23
2019-03-13T11:05:52.968Z,4.70
2019-03-13T11:08:29.165Z,5.03
2019-03-13T11:11:03.501Z,4.63
2019-03-13T11:13:39.723Z,6.40
2019-03-13T11:16:27.393Z,4.80
2019-03-13T11:19:08.284Z,4.50
2019-03-13T11:21:54.213Z,4.53
2019-03-13T11:24:30.195Z,5.03
2019-03-13T11:27:20.871Z,4.23
2019-03-13T11:30:17.143Z,4.87
2019-03-13T11:33:07.584Z,4.07
2019-03-13T11:36:13.336Z,5.30
2019-03-13T11:39:07.115Z,5.57
2019-03-13T11:41:52.960Z,5.20
2019-03-13T11:44:52.941Z,6.23
2019-03-13T11:47:41.696Z,5.93
2019-03-13T11:50:15.347Z,5.50
2019-03-13T11:53:08.985Z,5.90
2019-03-13T11:55:46.550Z,5.50
2019-03-13T11:58:34.296Z,5.23
2019-03-13T12:01:22.089Z,6.13
2019-03-13T12:04:08.766Z,5.97
2019-03-13T12:06:56.527Z,5.67
2019-03-13T12:09:57.408Z,5.83
2019-03-13T12:12:51.126Z,4.97
2019-03-13T12:15:25.270Z,5.37
2019-03-13T12:18:11.510Z,5.87
2019-03-13T12:20:49.517Z,5.80
2019-03-13T12:23:26.864Z,5.03
2019-03-13T12:26:14.490Z,4.97
2019-03-13T12:29:01.877Z,5.10
2019-03-13T12:31:47.943Z,5.43
2019-03-13T12:34:38.975Z,4.73
2019-03-13T12:37:22.562Z,4.70
2019-03-13T12:40:16.889Z,4.43
2019-03-13T12:42:57.524Z,4.60
2019-03-13T12:45:45.305Z,4.33
2019-03-13T12:48:27.364Z,4.13
2019-03-13T12:51:13.616Z,3.40
2019-03-13T12:53:58.735Z,3.60
2019-03-13T12:56:40.053Z,3.40
2019-03-13T12:59:17.273Z,3.00
2019-03-13T13:02:14.249Z,3.27
2019-03-13T13:05:02.184Z,3.17
2019-03-13T13:07:56.279Z,2.97
2019-03-13T13:10:43.757Z,3.07
2019-03-13T13:13:45.294Z,2.80
2019-03-13T13:19:03.806Z,2.93
2019-03-13T13:21:31.961Z,3.57
2019-03-13T13:24:00.158Z,2.70
2019-03-13T13:26:28.314Z,3.03
2019-03-13T13:28:56.560Z,2.50
2019-03-13T13:31:24.731Z,2.80
2019-03-13T13:33:53.147Z,2.50
2019-03-13T13:36:21.386Z,3.20
2019-03-13T13:38:49.729Z,3.37
2019-03-13T13:41:19.170Z,2.73
2019-03-13T13:43:47.389Z,2.97
2019-03-13T13:46:38.368Z,2.70
2019-03-13T13:49:06.835Z,2.67
2019-03-13T13:51:35.010Z,2.90
2019-03-13T13:54:03.414Z,2.80
2019-03-13T13:56:31.757Z,2.70
2019-03-13T13:58:59.872Z,2.70
2019-03-13T14:01:28.120Z,3.00
2019-03-13T14:03:56.191Z,3.00
2019-03-13T14:06:24.536Z,3.20
2019-03-13T14:08:52.634Z,2.27
2019-03-13T14:11:21.898Z,2.50
2019-03-13T14:13:50.013Z,3.13
2019-03-13T14:16:18.182Z,2.77
2019-03-13T14:18:46.262Z,2.70
2019-03-13T14:21:14.329Z,2.30
2019-03-13T14:23:42.522Z,2.47
2019-03-13T14:26:10.619Z,2.57
2019-03-13T14:28:38.723Z,2.60
2019-03-13T14:31:06.964Z,2.43
2019-03-13T14:33:35.213Z,2.20
2019-03-13T14:36:03.411Z,2.13
2019-03-13T14:38:31.703Z,2.33
2019-03-13T14:41:00.165Z,2.50
2019-03-13T14:43:28.274Z,2.53
2019-03-13T14:45:56.331Z,2.20
2019-03-13T14:48:24.376Z,2.10
2019-03-13T14:50:52.544Z,2.50
2019-03-13T14:53:20.572Z,2.13
2019-03-13T14:55:48.649Z,2.77
2019-03-13T14:58:16.790Z,2.93
2019-03-13T15:00:44.868Z,2.50
2019-03-13T15:03:13.152Z,2.50
2019-03-13T15:05:41.318Z,2.60
2019-03-13T15:08:09.348Z,2.63
2019-03-13T15:10:37.428Z,2.77
2019-03-13T15:13:05.628Z,3.00
2019-03-13T15:15:33.818Z,2.63
2019-03-13T15:18:01.893Z,3.20
2019-03-13T15:20:30.022Z,2.70
2019-03-13T15:22:58.150Z,3.10
2019-03-13T15:25:26.261Z,2.63
2019-03-13T15:27:54.539Z,2.10
2019-03-13T15:30:22.844Z,2.10
2019-03-13T15:32:51.020Z,2.37
2019-03-13T15:35:19.238Z,3.10
2019-03-13T15:37:47.311Z,2.70
2019-03-13T15:40:15.412Z,2.80
2019-03-13T15:42:43.854Z,2.83
2019-03-13T15:45:15.022Z,3.60
2019-03-13T15:47:43.425Z,2.80
2019-03-13T15:50:13.983Z,3.27
2019-03-13T15:52:42.844Z,3.10
2019-03-13T15:55:11.973Z,2.63
2019-03-13T15:57:41.495Z,2.93
2019-03-13T16:00:18.251Z,2.97
2019-03-13T16:02:46.514Z,3.00
2019-03-13T16:05:16.251Z,2.80
2019-03-13T16:07:44.312Z,2.90
2019-03-13T16:10:13.569Z,3.00
2019-03-13T16:12:41.812Z,2.93
2019-03-13T16:15:13.903Z,2.80
2019-03-13T16:17:42.222Z,3.03
2019-03-13T16:20:12.049Z,3.10
2019-03-13T16:22:41.092Z,3.30
2019-03-13T16:25:10.021Z,2.90
2019-03-13T16:27:41.037Z,2.63
2019-03-13T16:30:13.967Z,3.07
2019-03-13T16:32:44.267Z,2.37
2019-03-13T16:35:12.333Z,3.10
2019-03-13T16:37:40.494Z,3.00
2019-03-13T16:40:12.069Z,2.90
2019-03-13T16:42:40.216Z,3.10
2019-03-13T16:45:09.714Z,3.43
2019-03-13T16:47:37.762Z,3.00
2019-03-13T16:50:08.421Z,2.77
2019-03-13T16:52:36.711Z,2.77
2019-03-13T16:55:07.203Z,2.67
2019-03-13T16:57:35.319Z,2.35
2019-03-13T17:00:08.200Z,2.30
2019-03-13T17:02:36.909Z,2.67
2019-03-13T17:05:05.877Z,2.37
2019-03-13T17:07:33.975Z,2.40
2019-03-13T17:10:02.061Z,2.83
2019-03-13T17:12:31.347Z,2.40
2019-03-13T17:14:59.585Z,2.30
2019-03-13T17:17:27.787Z,2.80
2019-03-13T17:19:55.898Z,2.73
2019-03-13T17:22:24.117Z,2.50
2019-03-13T17:24:52.800Z,2.40
2019-03-13T17:27:22.398Z,2.70
2019-03-13T17:29:50.827Z,2.90
2019-03-13T17:32:18.919Z,2.77
2019-03-13T17:34:48.071Z,3.10
2019-03-13T17:37:16.202Z,3.33
2019-03-13T17:39:44.257Z,3.43
2019-03-13T17:42:12.492Z,3.13
2019-03-13T17:44:40.532Z,3.70
2019-03-13T17:47:11.228Z,3.60
2019-03-13T17:49:39.319Z,3.60
2019-03-13T17:52:08.500Z,3.90
2019-03-13T17:54:36.620Z,4.10
2019-03-13T17:57:04.757Z,4.17
2019-03-13T17:59:33.171Z,4.17
2019-03-13T18:02:01.282Z,3.70
2019-03-13T18:04:29.657Z,3.60
2019-03-13T18:06:59.343Z,4.27
2019-03-13T18:09:27.587Z,4.10
2019-03-13T18:11:55.615Z,3.87
2019-03-13T18:14:23.999Z,3.63
2019-03-13T18:16:52.202Z,3.97
2019-03-13T18:19:20.402Z,4.17
2019-03-13T18:21:48.465Z,3.70
2019-03-13T18:24:16.651Z,4.00
2019-03-13T18:26:44.686Z,4.10
2019-03-13T18:29:13.096Z,3.70
2019-03-13T18:31:41.177Z,4.10
2019-03-13T18:34:09.331Z,4.43
2019-03-13T18:36:37.532Z,4.60
2019-03-13T18:39:05.919Z,3.93
2019-03-13T18:41:35.716Z,3.83
2019-03-13T18:44:03.764Z,3.97
2019-03-13T18:46:31.883Z,4.30
2019-03-13T18:48:59.974Z,3.67
2019-03-13T18:51:28.066Z,3.90
2019-03-13T18:53:56.116Z,3.47
2019-03-13T18:56:24.167Z,3.20
2019-03-13T18:58:52.426Z,3.80
2019-03-13T19:01:20.628Z,3.60
2019-03-13T19:03:48.797Z,3.77
2019-03-13T19:06:16.997Z,3.27
2019-03-13T19:08:45.134Z,3.50
2019-03-13T19:11:13.240Z,3.30
2019-03-13T19:13:41.416Z,2.73
2019-03-13T19:16:09.499Z,3.03
2019-03-13T19:18:37.511Z,3.10
2019-03-13T19:21:05.890Z,2.67
2019-03-13T19:23:34.096Z,3.13
2019-03-13T19:26:02.858Z,3.60
2019-03-13T19:28:31.605Z,3.10
2019-03-13T19:30:59.843Z,3.10
2019-03-13T19:33:27.963Z,3.50
2019-03-13T19:35:56.034Z,3.23
2019-03-13T19:38:24.333Z,3.60
2019-03-13T19:40:52.434Z,4.37
2019-03-13T19:43:20.649Z,3.43
2019-03-13T19:45:48.802Z,4.03
2019-03-13T19:48:16.856Z,3.83
2019-03-13T19:50:45.114Z,3.20
2019-03-13T19:53:13.429Z,3.23
2019-03-13T19:55:41.685Z,3.43
2019-03-13T19:58:10.289Z,2.77
2019-03-13T20:00:38.513Z,3.10
2019-03-13T20:03:07.432Z,3.33
2019-03-13T20:05:45.486Z,3.10
2019-03-13T20:08:05.769Z,3.30
2019-03-13T20:10:33.800Z,3.10
2019-03-13T20:13:01.982Z,3.07
2019-03-13T20:15:30.170Z,3.10
2019-03-13T20:18:00.592Z,3.23
2019-03-13T20:20:28.712Z,2.63
2019-03-13T20:22:58.168Z,2.80
2019-03-13T20:25:26.237Z,3.20
2019-03-13T20:27:55.144Z,3.10
2019-03-13T20:30:23.600Z,3.70
2019-03-13T20:32:51.762Z,3.37
2019-03-13T20:35:21.034Z,4.03
2019-03-13T20:37:49.088Z,5.00
2019-03-13T20:40:19.075Z,5.07
2019-03-13T20:42:47.372Z,4.67
2019-03-13T20:45:18.579Z,4.47
2019-03-13T20:47:46.822Z,4.33
2019-03-13T20:50:15.036Z,4.80
2019-03-13T20:52:45.680Z,4.00
2019-03-13T20:55:13.600Z,4.50
2019-03-13T20:57:41.653Z,4.43
2019-03-13T21:00:14.064Z,4.70
2019-03-13T21:02:42.235Z,4.53
2019-03-13T21:05:12.311Z,5.73
2019-03-13T21:07:40.542Z,5.00
2019-03-13T21:10:09.939Z,4.37
2019-03-13T21:12:38.635Z,3.70
2019-03-13T21:15:08.424Z,3.90
2019-03-13T21:17:37.048Z,4.43
2019-03-13T21:20:06.111Z,4.13
2019-03-13T21:22:34.262Z,3.77
2019-03-13T21:25:02.654Z,3.77
2019-03-13T21:27:31.020Z,4.07
2019-03-13T21:29:59.228Z,4.63
2019-03-13T21:32:27.374Z,3.90
2019-03-13T21:34:55.413Z,4.00
2019-03-13T21:37:23.623Z,4.03
2019-03-13T21:39:52.790Z,4.30
2019-03-13T21:42:20.906Z,4.10
2019-03-13T21:44:49.097Z,3.90
2019-03-13T21:47:17.240Z,4.03
2019-03-13T21:49:45.530Z,4.93
2019-03-13T21:52:13.645Z,4.60
2019-03-13T21:54:42.789Z,5.40
2019-03-13T21:57:10.819Z,3.90
2019-03-13T21:59:38.995Z,3.70
2019-03-13T22:02:07.263Z,4.20
2019-03-13T22:04:36.146Z,4.63
2019-03-13T22:07:04.427Z,4.90
2019-03-13T22:09:32.608Z,4.27
2019-03-13T22:12:00.767Z,4.97
2019-03-13T22:14:28.994Z,4.30
2019-03-13T22:16:57.282Z,4.20
2019-03-13T22:19:25.419Z,4.63
2019-03-13T22:21:54.660Z,4.27
2019-03-13T22:24:23.065Z,4.17
2019-03-13T22:26:51.528Z,3.90
2019-03-13T22:29:19.870Z,3.80
2019-03-13T22:31:49.538Z,3.67
2019-03-13T22:34:17.614Z,3.33
2019-03-13T22:36:46.812Z,3.00
2019-03-13T22:39:14.882Z,3.40
2019-03-13T22:41:43.074Z,3.30
2019-03-13T22:44:12.199Z,2.90
2019-03-13T22:46:40.280Z,3.53
2019-03-13T22:49:08.391Z,4.17
2019-03-13T22:51:36.746Z,3.60
2019-03-13T22:54:05.046Z,4.27
2019-03-13T22:56:33.303Z,4.07
2019-03-13T22:59:01.419Z,4.17
2019-03-13T23:01:30.910Z,3.73
2019-03-13T23:03:59.452Z,4.70
2019-03-13T23:06:27.688Z,5.57
2019-03-13T23:08:55.878Z,4.93
2019-03-13T23:11:23.945Z,4.67
2019-03-13T23:13:52.230Z,4.80
2019-03-13T23:16:23.554Z,4.57
2019-03-13T23:18:52.706Z,4.43
2019-03-13T23:21:21.018Z,5.03
2019-03-13T23:23:52.089Z,5.07
2019-03-13T23:26:20.409Z,5.63
2019-03-13T23:28:48.743Z,5.37
2019-03-13T23:31:17.027Z,5.00
2019-03-13T23:33:45.337Z,5.87
2019-03-13T23:36:13.522Z,5.53
2019-03-13T23:38:41.756Z,5.00
2019-03-13T23:41:10.618Z,5.20
2019-03-13T23:43:39.686Z,5.33
2019-03-13T23:46:07.958Z,5.70
2019-03-13T23:48:36.182Z,5.13
2019-03-13T23:51:04.498Z,5.80
2019-03-13T23:53:32.728Z,5.63
2019-03-13T23:56:00.860Z,6.10
2019-03-13T23:58:30.147Z,5.43
